createdAt,value
2022-10-17T00:00:49.639Z,13.80
2022-10-17T00:03:16.715Z,13.80
2022-10-17T00:05:45.521Z,13.70
2022-10-17T00:08:13.184Z,13.70
2022-10-17T00:10:40.947Z,13.70
2022-10-17T00:13:08.293Z,13.70
2022-10-17T00:15:35.818Z,13.70
2022-10-17T00:18:03.203Z,13.70
2022-10-17T00:20:34.899Z,13.70
2022-10-17T00:23:02.331Z,13.60
2022-10-17T00:25:29.084Z,13.60
2022-10-17T00:27:56.236Z,13.60
2022-10-17T00:30:23.787Z,13.60
2022-10-17T00:32:51.237Z,13.60
2022-10-17T00:35:18.414Z,13.50
2022-10-17T00:37:45.412Z,13.50
2022-10-17T00:40:12.602Z,13.50
2022-10-17T00:42:39.450Z,13.50
2022-10-17T00:45:15.385Z,13.50
2022-10-17T00:47:44.408Z,13.40
2022-10-17T00:50:11.919Z,13.40
2022-10-17T00:52:39.736Z,13.30
2022-10-17T00:55:10.802Z,13.40
2022-10-17T00:57:39.249Z,13.40
2022-10-17T01:00:08.758Z,13.40
2022-10-17T01:02:36.310Z,13.40
2022-10-17T01:05:04.245Z,13.50
2022-10-17T01:07:34.693Z,13.40
2022-10-17T01:10:05.850Z,13.40
2022-10-17T01:12:36.963Z,13.40
2022-10-17T01:15:04.073Z,13.50
2022-10-17T01:17:43.825Z,13.60
2022-10-17T01:20:11.048Z,13.50
2022-10-17T01:22:37.801Z,13.60
2022-10-17T01:25:17.846Z,13.60
2022-10-17T01:28:03.651Z,13.60
2022-10-17T01:30:43.726Z,13.70
2022-10-17T01:33:12.474Z,13.70
2022-10-17T01:35:42.059Z,13.70
2022-10-17T01:38:09.562Z,13.70
2022-10-17T01:40:39.507Z,13.80
2022-10-17T01:43:13.395Z,13.80
2022-10-17T01:45:48.867Z,13.80
2022-10-17T01:48:19.240Z,13.90
2022-10-17T01:50:50.800Z,13.90
2022-10-17T01:53:33.624Z,13.90
2022-10-17T01:56:01.119Z,13.90
2022-10-17T01:58:31.406Z,13.90
2022-10-17T02:01:01.494Z,13.90
2022-10-17T02:03:32.360Z,13.90
2022-10-17T02:05:59.819Z,13.90
2022-10-17T02:08:29.292Z,13.90
2022-10-17T02:11:00.484Z,13.80
2022-10-17T02:13:51.760Z,13.80
2022-10-17T02:16:21.873Z,13.90
2022-10-17T02:18:54.924Z,13.80
2022-10-17T02:21:31.889Z,13.80
2022-10-17T02:24:19.823Z,13.80
2022-10-17T02:26:53.108Z,13.80
2022-10-17T02:29:22.423Z,13.80
2022-10-17T02:31:54.429Z,13.80
2022-10-17T02:34:36.600Z,13.90
2022-10-17T02:37:06.590Z,13.80
2022-10-17T02:39:35.417Z,13.80
2022-10-17T02:42:03.891Z,13.80
2022-10-17T02:44:33.717Z,13.80
2022-10-17T02:47:07.189Z,13.80
2022-10-17T02:49:38.413Z,13.80
2022-10-17T02:52:14.404Z,13.80
2022-10-17T02:54:45.107Z,13.80
2022-10-17T02:57:12.253Z,13.80
2022-10-17T02:59:41.426Z,13.80
2022-10-17T03:02:09.172Z,13.80
2022-10-17T03:04:35.960Z,13.80
2022-10-17T03:07:03.358Z,13.80
2022-10-17T03:09:30.085Z,13.80
2022-10-17T03:11:57.850Z,13.90
2022-10-17T03:14:24.695Z,13.90
2022-10-17T03:16:52.250Z,14.00
2022-10-17T03:19:19.559Z,14.00
2022-10-17T03:21:47.910Z,14.00
2022-10-17T03:24:15.087Z,14.10
2022-10-17T03:26:42.166Z,14.00
2022-10-17T03:29:09.827Z,14.20
2022-10-17T03:31:37.016Z,14.20
2022-10-17T03:34:05.751Z,14.40
2022-10-17T03:36:33.359Z,14.50
2022-10-17T03:39:01.564Z,14.70
2022-10-17T03:41:29.166Z,14.90
2022-10-17T03:43:56.935Z,14.90
2022-10-17T03:46:24.329Z,15.00
2022-10-17T03:48:52.495Z,15.20
2022-10-17T03:51:21.228Z,15.30
2022-10-17T03:53:52.368Z,15.40
2022-10-17T03:56:23.952Z,15.50
2022-10-17T03:58:57.096Z,15.60
2022-10-17T04:01:24.453Z,15.70
2022-10-17T04:03:52.191Z,15.80
2022-10-17T04:06:19.771Z,15.90
2022-10-17T04:08:47.321Z,15.90
2022-10-17T04:11:19.613Z,15.90
2022-10-17T04:13:48.924Z,16.00
2022-10-17T04:16:16.875Z,16.00
2022-10-17T04:18:55.295Z,16.10
2022-10-17T04:21:25.511Z,16.20
2022-10-17T04:23:56.084Z,16.40
2022-10-17T04:29:31.164Z,16.60
2022-10-17T04:32:05.799Z,16.60
2022-10-17T04:34:53.550Z,16.70
2022-10-17T04:37:22.453Z,16.70
2022-10-17T04:39:51.726Z,16.70
2022-10-17T04:42:18.947Z,16.60
2022-10-17T04:44:46.364Z,16.70
2022-10-17T04:47:16.474Z,16.80
2022-10-17T04:49:43.885Z,16.80
2022-10-17T04:52:11.856Z,16.90
2022-10-17T04:54:46.190Z,16.90
2022-10-17T04:57:14.714Z,16.80
2022-10-17T04:59:47.600Z,16.80
2022-10-17T05:02:37.665Z,16.80
2022-10-17T05:05:05.458Z,16.60
2022-10-17T05:07:33.332Z,16.60
2022-10-17T05:10:03.466Z,16.60
2022-10-17T05:12:32.679Z,16.50
2022-10-17T05:14:59.589Z,16.40
2022-10-17T05:17:28.321Z,16.40
2022-10-17T05:19:55.496Z,16.20
2022-10-17T05:22:22.781Z,16.10
2022-10-17T05:24:50.551Z,16.10
2022-10-17T05:27:17.768Z,16.10
2022-10-17T05:29:46.217Z,16.10
2022-10-17T05:32:19.965Z,16.00
2022-10-17T05:34:48.253Z,16.00
2022-10-17T05:37:15.641Z,16.00
2022-10-17T05:39:50.685Z,15.90
2022-10-17T05:42:20.526Z,15.90
2022-10-17T05:44:48.418Z,15.90
2022-10-17T05:47:18.134Z,15.80
2022-10-17T05:49:51.259Z,15.80
2022-10-17T05:52:23.184Z,15.80
2022-10-17T05:55:19.533Z,15.80
2022-10-17T05:57:46.904Z,15.70
2022-10-17T06:00:17.961Z,15.70
2022-10-17T06:03:00.269Z,15.70
2022-10-17T06:05:27.950Z,15.60
2022-10-17T06:07:58.310Z,15.60
2022-10-17T06:10:30.212Z,15.60
2022-10-17T06:12:57.569Z,15.60
2022-10-17T06:15:32.025Z,15.60
2022-10-17T06:18:03.431Z,15.60
2022-10-17T06:20:31.355Z,15.60
2022-10-17T06:22:58.969Z,15.60
2022-10-17T06:25:47.189Z,15.60
2022-10-17T06:28:14.844Z,15.70
2022-10-17T06:30:42.269Z,15.80
2022-10-17T06:33:09.231Z,15.80
2022-10-17T06:35:36.957Z,15.90
2022-10-17T06:38:04.906Z,15.90
2022-10-17T06:40:34.670Z,16.00
2022-10-17T06:43:01.562Z,16.00
2022-10-17T06:48:33.104Z,16.10
2022-10-17T06:51:35.456Z,16.10
2022-10-17T06:54:02.713Z,16.20
2022-10-17T06:56:47.779Z,16.20
2022-10-17T06:59:40.738Z,16.30
2022-10-17T07:02:12.135Z,16.30
2022-10-17T07:04:39.202Z,16.40
2022-10-17T07:07:06.964Z,16.50
2022-10-17T07:09:34.698Z,16.50
2022-10-17T07:12:03.253Z,16.60
2022-10-17T07:14:36.535Z,16.60
2022-10-17T07:17:04.501Z,16.60
2022-10-17T07:19:32.726Z,16.70
2022-10-17T07:22:00.390Z,16.80
2022-10-17T07:24:27.715Z,16.80
2022-10-17T07:27:02.323Z,16.90
2022-10-17T07:29:29.688Z,16.90
2022-10-17T07:32:04.048Z,17.00
2022-10-17T07:34:32.993Z,17.10
2022-10-17T07:36:59.766Z,17.20
2022-10-17T07:39:26.687Z,17.20
2022-10-17T07:41:54.159Z,17.30
2022-10-17T07:44:22.306Z,17.30
2022-10-17T07:46:52.447Z,17.40
2022-10-17T07:49:19.392Z,17.40
2022-10-17T07:54:14.851Z,17.60
2022-10-17T07:56:41.610Z,17.70
2022-10-17T07:59:09.534Z,17.80
2022-10-17T08:01:37.107Z,17.90
2022-10-17T08:04:04.334Z,18.10
2022-10-17T08:06:31.126Z,18.20
2022-10-17T08:08:59.297Z,18.30
2022-10-17T08:11:26.522Z,18.50
2022-10-17T08:13:53.270Z,18.60
2022-10-17T08:16:20.716Z,18.60
2022-10-17T08:18:47.499Z,18.70
2022-10-17T08:21:14.286Z,18.80
2022-10-17T08:23:42.277Z,18.90
2022-10-17T08:26:10.986Z,18.90
2022-10-17T08:28:39.433Z,19.00
2022-10-17T08:31:10.409Z,19.10
2022-10-17T08:33:38.024Z,19.20
2022-10-17T08:36:05.902Z,19.30
2022-10-17T08:38:35.534Z,19.20
2022-10-17T08:41:04.730Z,19.30
2022-10-17T08:43:37.723Z,19.40
2022-10-17T08:46:06.582Z,19.50
2022-10-17T08:48:37.031Z,19.60
2022-10-17T08:51:12.123Z,19.60
2022-10-17T08:53:39.012Z,19.70
2022-10-17T08:56:19.529Z,19.90
2022-10-17T08:58:52.066Z,20.10
2022-10-17T09:01:31.804Z,20.20
2022-10-17T09:04:01.661Z,20.30
2022-10-17T09:06:37.708Z,20.40
2022-10-17T09:09:23.394Z,20.60
2022-10-17T09:11:50.207Z,20.70
2022-10-17T09:14:35.808Z,20.80
2022-10-17T09:17:17.990Z,20.90
2022-10-17T09:19:59.400Z,21.00
2022-10-17T09:22:28.862Z,21.10
2022-10-17T09:24:57.225Z,21.20
2022-10-17T09:27:26.776Z,21.30
2022-10-17T09:30:17.198Z,21.30
2022-10-17T09:32:59.727Z,21.40
2022-10-17T09:35:28.446Z,21.50
2022-10-17T09:37:55.614Z,21.70
2022-10-17T09:40:27.943Z,21.80
2022-10-17T09:43:00.617Z,21.90
2022-10-17T09:45:31.476Z,22.00
2022-10-17T09:48:09.623Z,22.10
2022-10-17T09:50:36.724Z,22.20
2022-10-17T09:53:11.182Z,22.40
2022-10-17T09:55:47.938Z,22.50
2022-10-17T09:58:15.900Z,22.70
2022-10-17T10:00:44.405Z,22.80
2022-10-17T10:03:24.124Z,22.90
2022-10-17T10:06:05.415Z,23.00
2022-10-17T10:08:51.694Z,23.10
2022-10-17T10:11:19.915Z,23.20
2022-10-17T10:13:48.679Z,23.30
2022-10-17T10:16:36.261Z,23.60
2022-10-17T10:19:20.222Z,23.70
2022-10-17T10:21:54.944Z,24.00
2022-10-17T10:24:25.875Z,24.20
2022-10-17T10:26:58.301Z,24.50
2022-10-17T10:29:34.959Z,24.80
2022-10-17T10:32:16.506Z,25.10
2022-10-17T10:34:49.875Z,25.40
2022-10-17T10:37:19.419Z,25.60
2022-10-17T10:39:47.590Z,25.80
2022-10-17T10:42:20.096Z,26.00
2022-10-17T10:44:48.314Z,26.30
2022-10-17T10:47:23.713Z,26.50
2022-10-17T10:49:52.283Z,26.70
2022-10-17T10:52:23.440Z,26.90
2022-10-17T10:54:55.516Z,27.00
2022-10-17T10:57:25.645Z,27.20
2022-10-17T11:00:04.807Z,27.40
2022-10-17T11:02:40.608Z,27.50
2022-10-17T11:05:19.245Z,27.50
2022-10-17T11:07:49.565Z,27.50
2022-10-17T11:10:32.174Z,27.60
2022-10-17T11:13:04.231Z,27.50
2022-10-17T11:15:47.106Z,27.40
2022-10-17T11:18:38.024Z,27.30
2022-10-17T11:21:10.975Z,27.20
2022-10-17T11:23:43.733Z,26.90
2022-10-17T11:26:18.110Z,26.70
2022-10-17T11:28:44.946Z,26.50
2022-10-17T11:31:16.272Z,26.40
2022-10-17T11:33:53.477Z,26.20
2022-10-17T11:36:23.610Z,26.10
2022-10-17T11:38:50.743Z,26.00
2022-10-17T11:41:20.933Z,26.00
2022-10-17T11:43:57.490Z,26.00
2022-10-17T11:46:26.421Z,25.80
2022-10-17T11:49:06.545Z,25.80
2022-10-17T11:54:30.856Z,25.50
2022-10-17T11:57:14.081Z,25.50
2022-10-17T11:59:44.716Z,25.40
2022-10-17T12:02:27.220Z,25.40
2022-10-17T12:05:18.737Z,25.40
2022-10-17T12:07:49.054Z,25.30
2022-10-17T12:10:35.319Z,25.30
2022-10-17T12:13:21.159Z,25.20
2022-10-17T12:15:47.941Z,25.20
2022-10-17T12:18:17.121Z,25.20
2022-10-17T12:20:55.894Z,25.10
2022-10-17T12:23:27.693Z,25.10
2022-10-17T12:25:59.691Z,25.10
2022-10-17T12:28:42.330Z,25.00
2022-10-17T12:31:13.463Z,25.00
2022-10-17T12:33:40.225Z,25.00
2022-10-17T12:36:23.583Z,24.90
2022-10-17T12:38:52.045Z,24.90
2022-10-17T12:41:38.064Z,24.90
2022-10-17T12:44:14.049Z,24.80
2022-10-17T12:46:47.560Z,24.80
2022-10-17T12:49:20.882Z,24.70
2022-10-17T12:52:11.452Z,24.70
2022-10-17T12:54:47.976Z,24.70
2022-10-17T12:57:57.182Z,24.60
2022-10-17T13:00:29.480Z,24.60
2022-10-17T13:03:01.644Z,24.60
2022-10-17T13:05:30.564Z,24.50
2022-10-17T13:07:59.981Z,24.50
2022-10-17T13:10:29.025Z,24.40
2022-10-17T13:13:03.929Z,24.30
2022-10-17T13:15:30.768Z,24.20
2022-10-17T13:17:59.958Z,24.20
2022-10-17T13:20:31.328Z,24.20
2022-10-17T13:23:22.972Z,24.20
2022-10-17T13:26:01.965Z,24.20
2022-10-17T13:28:29.493Z,24.20
2022-10-17T13:30:57.184Z,24.20
2022-10-17T13:33:29.465Z,24.10
2022-10-17T13:36:01.084Z,24.00
2022-10-17T13:38:30.017Z,24.00
2022-10-17T13:41:06.111Z,23.90
2022-10-17T13:43:38.841Z,23.80
2022-10-17T13:46:25.602Z,23.70
2022-10-17T13:48:53.456Z,23.60
2022-10-17T13:51:20.781Z,23.60
2022-10-17T13:53:47.595Z,23.50
2022-10-17T13:56:28.778Z,23.40
2022-10-17T13:58:57.419Z,23.40
2022-10-17T14:01:25.423Z,23.30
2022-10-17T14:04:07.172Z,23.20
2022-10-17T14:06:43.947Z,23.10
2022-10-17T14:09:18.593Z,23.10
2022-10-17T14:11:56.046Z,23.00
2022-10-17T14:14:24.072Z,22.90
2022-10-17T14:16:51.124Z,22.80
2022-10-17T14:19:24.852Z,22.80
2022-10-17T14:21:59.954Z,22.80
2022-10-17T14:24:28.566Z,22.70
2022-10-17T14:26:58.929Z,22.70
2022-10-17T14:29:28.944Z,22.60
2022-10-17T14:32:00.415Z,22.60
2022-10-17T14:34:31.650Z,22.50
2022-10-17T14:36:58.779Z,22.50
2022-10-17T14:39:26.327Z,22.50
2022-10-17T14:41:53.257Z,22.50
2022-10-17T14:44:22.971Z,22.40
2022-10-17T14:46:53.191Z,22.40
2022-10-17T14:49:24.820Z,22.30
2022-10-17T14:52:13.694Z,22.30
2022-10-17T14:54:46.335Z,22.10
2022-10-17T14:57:19.478Z,22.00
2022-10-17T14:59:55.182Z,21.90
2022-10-17T15:02:24.016Z,21.70
2022-10-17T15:04:51.092Z,21.60
2022-10-17T15:07:18.631Z,21.50
2022-10-17T15:09:47.315Z,21.30
2022-10-17T15:12:15.886Z,21.30
2022-10-17T15:14:43.366Z,21.20
2022-10-17T15:17:15.353Z,21.10
2022-10-17T15:19:42.477Z,21.00
2022-10-17T15:22:09.555Z,20.90
2022-10-17T15:24:36.410Z,20.80
2022-10-17T15:27:03.574Z,20.80
2022-10-17T15:29:30.340Z,20.80
2022-10-17T15:31:57.401Z,20.60
2022-10-17T15:34:24.632Z,20.60
2022-10-17T15:36:51.870Z,20.50
2022-10-17T15:39:19.065Z,20.50
2022-10-17T15:41:48.512Z,20.40
2022-10-17T15:44:15.371Z,20.30
2022-10-17T15:46:42.935Z,20.20
2022-10-17T15:49:13.884Z,20.10
2022-10-17T15:51:40.982Z,20.10
2022-10-17T15:54:07.787Z,20.00
2022-10-17T15:56:40.143Z,20.00
2022-10-17T15:59:10.729Z,19.90
2022-10-17T16:01:38.597Z,19.80
2022-10-17T16:04:05.737Z,19.80
2022-10-17T16:06:32.491Z,19.80
2022-10-17T16:09:00.548Z,19.70
2022-10-17T16:11:35.666Z,19.80
2022-10-17T16:14:04.060Z,19.70
2022-10-17T16:16:31.138Z,19.70
2022-10-17T16:18:58.021Z,19.60
2022-10-17T16:21:26.676Z,19.60
2022-10-17T16:23:54.423Z,19.50
2022-10-17T16:26:21.221Z,19.50
2022-10-17T16:28:48.024Z,19.40
2022-10-17T16:31:19.789Z,19.30
2022-10-17T16:33:46.928Z,19.30
2022-10-17T16:36:13.765Z,19.20
2022-10-17T16:38:40.544Z,19.10
2022-10-17T16:41:17.068Z,19.10
2022-10-17T16:43:44.127Z,19.10
2022-10-17T16:46:10.866Z,19.00
2022-10-17T16:48:41.282Z,18.90
2022-10-17T16:51:08.410Z,18.80
2022-10-17T16:53:40.293Z,18.70
2022-10-17T16:56:08.240Z,18.70
2022-10-17T16:58:35.211Z,18.60
2022-10-17T17:01:03.936Z,18.60
2022-10-17T17:03:31.047Z,18.60
2022-10-17T17:05:57.802Z,18.50
2022-10-17T17:08:25.069Z,18.50
2022-10-17T17:10:53.564Z,18.50
2022-10-17T17:13:20.916Z,18.40
2022-10-17T17:15:47.785Z,18.40
2022-10-17T17:18:15.071Z,18.30
2022-10-17T17:20:41.997Z,18.20
2022-10-17T17:23:13.693Z,18.20
2022-10-17T17:25:45.493Z,18.10
2022-10-17T17:28:12.599Z,18.10
2022-10-17T17:30:39.306Z,18.00
2022-10-17T17:33:06.235Z,18.00
2022-10-17T17:35:33.172Z,17.90
2022-10-17T17:38:03.024Z,17.80
2022-10-17T17:40:29.995Z,17.80
2022-10-17T17:42:57.080Z,17.70
2022-10-17T17:45:23.910Z,17.70
2022-10-17T17:47:51.635Z,17.60
2022-10-17T17:50:18.832Z,17.60
2022-10-17T17:52:46.494Z,17.50
2022-10-17T17:55:13.502Z,17.50
2022-10-17T17:57:40.746Z,17.40
2022-10-17T18:00:07.967Z,17.40
2022-10-17T18:02:37.659Z,17.50
2022-10-17T18:05:06.991Z,17.50
2022-10-17T18:07:38.301Z,17.60
2022-10-17T18:10:07.952Z,17.50
2022-10-17T18:12:35.039Z,17.50
2022-10-17T18:15:02.298Z,17.50
2022-10-17T18:17:31.665Z,17.50
2022-10-17T18:19:58.517Z,17.40
2022-10-17T18:22:25.652Z,17.40
2022-10-17T18:24:52.953Z,17.40
2022-10-17T18:27:19.813Z,17.30
2022-10-17T18:29:47.188Z,17.20
2022-10-17T18:32:14.523Z,17.20
2022-10-17T18:34:41.858Z,17.20
2022-10-17T18:37:09.047Z,17.20
2022-10-17T18:39:36.497Z,17.20
2022-10-17T18:42:03.376Z,17.10
2022-10-17T18:44:30.679Z,17.10
2022-10-17T18:47:03.017Z,17.10
2022-10-17T18:49:31.840Z,17.10
2022-10-17T18:51:59.811Z,17.10
2022-10-17T18:54:26.843Z,17.00
2022-10-17T18:56:54.259Z,17.00
2022-10-17T18:59:21.550Z,16.90
2022-10-17T19:01:48.952Z,16.90
2022-10-17T19:04:16.932Z,16.90
2022-10-17T19:06:43.898Z,16.80
2022-10-17T19:09:12.152Z,16.70
2022-10-17T19:11:39.692Z,16.70
2022-10-17T19:14:13.700Z,16.60
2022-10-17T19:16:47.295Z,16.60
2022-10-17T19:19:16.536Z,16.50
2022-10-17T19:21:43.920Z,16.50
2022-10-17T19:24:15.292Z,16.40
2022-10-17T19:26:42.895Z,16.50
2022-10-17T19:29:11.045Z,16.50
2022-10-17T19:31:38.120Z,16.40
2022-10-17T19:34:05.589Z,16.40
2022-10-17T19:36:34.128Z,16.30
2022-10-17T19:39:03.191Z,16.30
2022-10-17T19:41:31.241Z,16.20
2022-10-17T19:43:59.719Z,16.20
2022-10-17T19:46:27.476Z,16.10
2022-10-17T19:48:55.184Z,16.10
2022-10-17T19:51:24.939Z,16.00
2022-10-17T19:53:53.044Z,15.90
2022-10-17T19:56:20.691Z,15.90
2022-10-17T19:58:48.205Z,15.90
2022-10-17T20:01:17.889Z,15.90
2022-10-17T20:03:48.276Z,15.80
2022-10-17T20:06:15.625Z,15.80
2022-10-17T20:08:42.743Z,15.80
2022-10-17T20:11:12.099Z,15.70
2022-10-17T20:13:39.213Z,15.80
2022-10-17T20:16:07.608Z,15.70
2022-10-17T20:18:35.435Z,15.70
2022-10-17T20:21:06.713Z,15.70
2022-10-17T20:23:33.461Z,15.70
2022-10-17T20:26:18.821Z,15.70
2022-10-17T20:28:48.227Z,15.70
2022-10-17T20:31:15.512Z,15.70
2022-10-17T20:33:42.608Z,15.60
2022-10-17T20:36:10.309Z,15.50
2022-10-17T20:38:37.287Z,15.50
2022-10-17T20:41:06.379Z,15.40
2022-10-17T20:43:33.820Z,15.40
2022-10-17T20:46:09.647Z,15.30
2022-10-17T20:48:42.878Z,15.30
2022-10-17T20:51:10.236Z,15.20
2022-10-17T20:53:37.923Z,15.20
2022-10-17T20:56:06.272Z,15.10
2022-10-17T20:58:33.019Z,15.10
2022-10-17T21:01:04.871Z,15.10
2022-10-17T21:03:34.216Z,15.00
2022-10-17T21:06:01.442Z,15.00
2022-10-17T21:08:28.209Z,15.00
2022-10-17T21:10:55.634Z,15.00
2022-10-17T21:13:22.651Z,15.00
2022-10-17T21:15:50.040Z,15.00
2022-10-17T21:18:17.420Z,15.00
2022-10-17T21:20:44.181Z,14.90
2022-10-17T21:23:11.312Z,14.90
2022-10-17T21:25:40.775Z,14.90
2022-10-17T21:28:07.652Z,14.90
2022-10-17T21:30:35.338Z,14.80
2022-10-17T21:33:02.246Z,14.70
2022-10-17T21:35:30.122Z,14.70
2022-10-17T21:37:57.314Z,14.70
2022-10-17T21:40:24.106Z,14.70
2022-10-17T21:42:50.913Z,14.60
2022-10-17T21:45:25.416Z,14.50
2022-10-17T21:48:12.196Z,14.50
2022-10-17T21:50:39.667Z,14.50
2022-10-17T21:53:06.515Z,14.50
2022-10-17T21:55:36.033Z,14.50
2022-10-17T21:58:03.223Z,14.40
2022-10-17T22:00:30.449Z,14.40
2022-10-17T22:02:57.523Z,14.40
2022-10-17T22:05:25.256Z,14.40
2022-10-17T22:07:53.647Z,14.40
2022-10-17T22:10:21.279Z,14.30
2022-10-17T22:12:48.645Z,14.30
2022-10-17T22:15:16.382Z,14.30
2022-10-17T22:17:43.107Z,14.30
2022-10-17T22:20:10.052Z,14.20
2022-10-17T22:22:36.917Z,14.10
2022-10-17T22:25:04.273Z,14.10
2022-10-17T22:27:32.406Z,14.10
2022-10-17T22:29:59.907Z,14.10
2022-10-17T22:32:27.207Z,14.10
2022-10-17T22:34:54.061Z,14.10
2022-10-17T22:37:20.967Z,14.00
2022-10-17T22:39:48.118Z,14.00
2022-10-17T22:42:15.345Z,14.00
2022-10-17T22:44:42.529Z,14.00
2022-10-17T22:47:09.657Z,14.00
2022-10-17T22:49:36.415Z,14.00
2022-10-17T22:52:03.669Z,14.00
2022-10-17T22:54:30.437Z,14.00
2022-10-17T22:56:57.505Z,13.90
2022-10-17T22:59:24.622Z,13.90
2022-10-17T23:01:51.786Z,14.00
2022-10-17T23:04:19.186Z,14.00
2022-10-17T23:06:46.379Z,14.00
2022-10-17T23:09:13.644Z,14.00
2022-10-17T23:11:40.416Z,14.00
2022-10-17T23:14:07.779Z,14.10
2022-10-17T23:16:34.553Z,14.10
2022-10-17T23:19:01.749Z,14.10
2022-10-17T23:21:28.565Z,14.00
2022-10-17T23:23:56.317Z,13.90
2022-10-17T23:26:23.161Z,13.90
2022-10-17T23:28:53.389Z,13.90
2022-10-17T23:31:21.978Z,13.90
2022-10-17T23:33:49.796Z,14.00
2022-10-17T23:36:18.223Z,14.00
2022-10-17T23:38:46.552Z,14.10
2022-10-17T23:41:13.796Z,14.10
2022-10-17T23:43:41.460Z,14.00
2022-10-17T23:46:08.209Z,14.00
2022-10-17T23:48:36.030Z,14.00
2022-10-17T23:51:03.343Z,14.10
2022-10-17T23:53:30.167Z,14.00
2022-10-17T23:55:57.944Z,14.00
2022-10-17T23:58:24.856Z,14.00
